Time;durP1;ratioP1;P1;durP2;ratioP2;P2;SDS_P1;SDS_P2;PMS_P1;PMS_P2;Temp;Humidity;BMP_temperature;BMP_pressure;BME280_temperature;BME280_humidity;BME280_pressure;Samples;Min_cycle;Max_cycle;Signal;HPM_P1;HPM_P2
2022/10/08 00:01:32;;;;;;;11.90;6.85;;;;;;;10.46;80.81;101090.47;7401871;19;20019;-67
2022/10/08 00:04:00;;;;;;;12.77;6.90;;;;;;;10.45;81.30;101080.88;7401431;19;20373;-68
2022/10/08 00:06:31;;;;;;;12.88;6.47;;;;;;;10.46;81.45;101085.22;7398811;19;20098;-68
2022/10/08 00:09:07;;;;;;;14.48;7.68;;;;;;;10.46;81.42;101093.09;7401829;19;20022;-67
2022/10/08 00:11:40;;;;;;;11.27;7.03;;;;;;;10.46;81.89;101095.72;7401845;19;20516;-67
2022/10/08 00:14:09;;;;;;;10.32;7.18;;;;;;;10.46;82.01;101093.94;7398501;19;20090;-68
2022/10/08 00:16:40;;;;;;;10.77;6.93;;;;;;;10.45;82.05;101089.63;7401193;19;20085;-69
2022/10/08 00:19:12;;;;;;;11.90;7.50;;;;;;;10.48;82.12;101093.94;7398958;19;20015;-68
2022/10/08 00:21:42;;;;;;;11.75;7.47;;;;;;;10.47;82.35;101089.59;7401003;19;20083;-67
2022/10/08 00:24:15;;;;;;;11.32;6.93;;;;;;;10.48;82.34;101088.69;7398296;19;20017;-67
2022/10/08 00:26:47;;;;;;;15.00;7.72;;;;;;;10.49;82.68;101087.78;7397960;19;20013;-67
2022/10/08 00:29:17;;;;;;;10.43;6.63;;;;;;;10.51;82.71;101091.25;7401497;19;20078;-67
2022/10/08 00:31:48;;;;;;;11.18;7.32;;;;;;;10.51;82.69;101088.63;7400801;19;20548;-68
2022/10/08 00:34:18;;;;;;;8.93;7.18;;;;;;;10.50;82.85;101087.78;7400603;19;20070;-68
2022/10/08 00:36:48;;;;;;;11.65;7.20;;;;;;;10.52;82.94;101101.72;7400101;19;20544;-68
2022/10/08 00:39:18;;;;;;;10.68;7.85;;;;;;;10.53;83.02;101100.00;7400736;19;20018;-68
2022/10/08 00:41:51;;;;;;;11.75;6.80;;;;;;;10.52;83.01;101096.47;7398466;19;20094;-68
2022/10/08 00:45:01;;;;;;;8.93;7.38;;;;;;;10.53;83.15;101092.13;7401021;19;20018;-67
2022/10/08 00:47:38;;;;;;;10.98;7.35;;;;;;;10.54;83.32;101093.81;7396797;19;20077;-68
2022/10/08 00:50:10;;;;;;;11.15;7.40;;;;;;;10.54;83.17;101099.97;7397903;19;20074;-68
2022/10/08 00:52:44;;;;;;;11.90;7.30;;;;;;;10.51;83.09;101086.88;7400062;19;20018;-68
2022/10/08 00:55:15;;;;;;;11.48;8.05;;;;;;;10.54;83.31;101084.22;7399971;19;20485;-68
2022/10/08 00:57:46;;;;;;;10.40;7.50;;;;;;;10.54;83.53;101078.09;7397887;19;20114;-68
2022/10/08 01:00:18;;;;;;;11.88;7.63;;;;;;;10.55;83.44;101079.81;7400316;19;20102;-68
2022/10/08 01:02:46;;;;;;;12.05;7.30;;;;;;;10.55;83.55;101078.09;7397831;19;20078;-68
2022/10/08 01:05:18;;;;;;;15.23;8.23;;;;;;;10.57;83.63;101078.91;7399664;19;20082;-68
2022/10/08 01:07:52;;;;;;;10.45;7.63;;;;;;;10.56;84.02;101074.56;7398139;19;20014;-68
2022/10/08 01:10:32;;;;;;;14.38;8.52;;;;;;;10.58;84.00;101069.28;7400118;19;20081;-68
2022/10/08 01:13:14;;;;;;;15.63;8.63;;;;;;;10.58;83.93;101067.53;7397644;19;20393;-67
2022/10/08 01:15:49;;;;;;;10.88;7.90;;;;;;;10.59;84.05;101065.78;7399362;19;20509;-67
2022/10/08 01:18:27;;;;;;;11.80;8.25;;;;;;;10.59;83.87;101058.75;7397755;19;20089;-67
2022/10/08 01:21:07;;;;;;;12.27;8.15;;;;;;;10.59;84.15;101056.13;7396667;19;20014;-67
2022/10/08 01:23:50;;;;;;;17.77;8.35;;;;;;;10.59;84.26;101060.53;7399734;19;20019;-67
2022/10/08 01:26:39;;;;;;;10.40;8.25;;;;;;;10.61;85.37;101057.88;7398401;19;20078;-67
2022/10/08 01:29:16;;;;;;;12.45;8.55;;;;;;;10.59;84.65;101060.53;7399183;19;20074;-67
2022/10/08 01:31:49;;;;;;;11.10;8.50;;;;;;;10.58;84.20;101053.56;7399404;19;20014;-67
2022/10/08 01:34:23;;;;;;;11.43;8.65;;;;;;;10.57;84.32;101050.03;7399286;19;20078;-68
2022/10/08 01:36:54;;;;;;;13.95;8.57;;;;;;;10.56;84.53;101050.97;7399093;19;20073;-68
2022/10/08 01:39:28;;;;;;;15.70;8.55;;;;;;;10.55;84.56;101050.97;7398712;19;20018;-67
2022/10/08 01:41:57;;;;;;;10.68;8.43;;;;;;;10.54;84.89;101054.47;7399401;19;20027;-68
2022/10/08 01:44:33;;;;;;;13.98;9.63;;;;;;;10.51;84.69;101054.53;7398376;19;20485;-67
2022/10/08 01:47:06;;;;;;;15.07;8.75;;;;;;;10.51;84.90;101046.66;7396622;19;20086;-67
2022/10/08 01:49:38;;;;;;;14.87;9.23;;;;;;;10.49;84.78;101045.81;7397071;19;20023;-67
2022/10/08 01:52:12;;;;;;;11.80;8.70;;;;;;;10.50;84.92;101053.69;7398933;19;20014;-67
2022/10/08 01:54:42;;;;;;;12.35;8.93;;;;;;;10.47;84.87;101051.09;7398926;19;20047;-67
2022/10/08 01:57:12;;;;;;;16.65;9.75;;;;;;;10.47;84.92;101056.34;7397810;19;20023;-67
2022/10/08 01:59:48;;;;;;;17.45;9.38;;;;;;;10.46;85.01;101044.09;7396295;19;20385;-67
2022/10/08 02:02:22;;;;;;;15.10;9.65;;;;;;;10.45;85.43;101045.03;7395926;19;20489;-67
2022/10/08 02:04:52;;;;;;;13.02;9.45;;;;;;;10.44;85.29;101045.91;7397887;19;20018;-67
2022/10/08 02:07:24;;;;;;;14.20;9.23;;;;;;;10.42;85.30;101037.19;7396253;19;20026;-67
2022/10/08 02:09:54;;;;;;;11.95;9.63;;;;;;;10.40;85.17;101039.84;7396464;19;20085;-67
2022/10/08 02:12:24;;;;;;;14.93;9.50;;;;;;;10.39;85.68;101034.63;7395262;19;20035;-67
2022/10/08 02:14:58;;;;;;;12.32;10.07;;;;;;;10.38;85.66;101030.28;7397757;19;20018;-67
2022/10/08 02:17:41;;;;;;;14.50;8.70;;;;;;;10.37;85.67;101032.00;7397330;19;20066;-67
2022/10/08 02:20:18;;;;;;;11.40;8.85;;;;;;;10.36;85.74;101026.78;7398047;19;20011;-67
2022/10/08 02:22:57;;;;;;;13.10;9.65;;;;;;;10.33;85.72;101011.94;7397823;19;20014;-67
2022/10/08 02:25:32;;;;;;;13.57;9.45;;;;;;;10.31;86.23;101018.97;7396086;19;20014;-67
2022/10/08 02:28:09;;;;;;;13.68;9.57;;;;;;;10.31;86.18;101012.84;7396023;19;20424;-67
2022/10/08 02:30:48;;;;;;;16.15;10.48;;;;;;;10.30;86.22;101005.88;7396993;19;20027;-67
2022/10/08 02:33:23;;;;;;;16.92;9.93;;;;;;;10.28;86.29;101011.16;7397611;19;20031;-67
2022/10/08 02:35:55;;;;;;;12.20;9.80;;;;;;;10.26;86.35;101016.44;7397188;19;20418;-67
2022/10/08 02:38:29;;;;;;;13.63;10.30;;;;;;;10.25;86.32;101017.31;7395787;19;20079;-67
2022/10/08 02:41:02;;;;;;;13.40;10.40;;;;;;;10.24;86.68;101010.34;7397064;19;20078;-67
2022/10/08 02:43:34;;;;;;;11.90;10.00;;;;;;;10.23;86.82;101016.47;7397433;19;20035;-67
2022/10/08 02:46:10;;;;;;;13.18;9.45;;;;;;;10.21;87.30;101010.41;7396028;19;20089;-67
2022/10/08 02:48:43;;;;;;;15.23;9.65;;;;;;;10.21;87.13;101012.13;7394704;19;20011;-67
2022/10/08 02:51:17;;;;;;;12.85;9.68;;;;;;;10.19;87.25;101014.78;7394971;19;20385;-67
2022/10/08 02:53:47;;;;;;;;;;;;;;;10.17;88.63;101016.56;7397083;19;20019;-67
2022/10/08 02:56:22;;;;;;;16.70;10.40;;;;;;;10.15;87.59;101012.22;7396396;19;19922;-67
2022/10/08 02:58:51;;;;;;;17.63;10.60;;;;;;;10.13;87.36;101012.25;7394813;19;20037;-67
2022/10/08 03:01:27;;;;;;;12.60;9.88;;;;;;;10.12;86.68;101013.13;7394790;19;20090;-67
2022/10/08 03:04:02;;;;;;;14.18;10.10;;;;;;;10.11;87.12;101011.44;7396594;19;20029;-66
2022/10/08 03:06:33;;;;;;;12.90;10.18;;;;;;;10.08;87.06;101014.09;7395170;19;20073;-67
2022/10/08 03:09:05;;;;;;;16.15;11.15;;;;;;;10.06;87.18;101002.75;7395861;19;20033;-67
2022/10/08 03:11:35;;;;;;;14.70;10.32;;;;;;;10.05;87.20;101008.91;7396520;19;20018;-67
2022/10/08 03:14:08;;;;;;;12.35;10.75;;;;;;;10.04;87.04;101009.78;7396499;19;20457;-67
2022/10/08 03:16:42;;;;;;;12.45;10.65;;;;;;;10.02;87.23;101007.19;7395356;19;20019;-67
2022/10/08 03:19:13;;;;;;;16.73;10.50;;;;;;;10.01;87.29;101007.19;7395945;19;20014;-67
2022/10/08 03:21:43;;;;;;;17.33;11.10;;;;;;;9.99;87.30;101007.22;7395576;19;20082;-67
2022/10/08 03:24:13;;;;;;;13.55;10.90;;;;;;;9.98;87.31;100999.41;7391944;19;20461;-67
2022/10/08 03:26:42;;;;;;;15.75;10.68;;;;;;;9.97;87.49;101008.13;7394381;19;20091;-67
2022/10/08 03:29:11;;;;;;;14.55;11.10;;;;;;;9.94;87.69;101006.44;7395067;19;20362;-66
2022/10/08 03:31:42;;;;;;;15.80;11.32;;;;;;;9.93;87.73;101007.31;7395457;19;20078;-67
2022/10/08 03:34:11;;;;;;;15.85;11.35;;;;;;;9.91;87.84;101007.34;7395564;19;20035;-66
2022/10/08 03:36:39;;;;;;;18.60;11.32;;;;;;;9.89;87.74;101011.72;7394534;19;20481;-67
2022/10/08 03:39:08;;;;;;;17.25;11.48;;;;;;;9.88;88.08;101012.66;7395188;19;20018;-67
2022/10/08 03:41:36;;;;;;;16.05;11.15;;;;;;;9.87;88.20;101016.16;7395143;19;20023;-67
2022/10/08 03:44:05;;;;;;;14.27;11.65;;;;;;;9.86;88.21;101018.81;7394975;19;20035;-67
2022/10/08 03:46:33;;;;;;;17.02;12.10;;;;;;;9.85;88.52;101022.31;7394370;19;20027;-68
2022/10/08 03:49:04;;;;;;;15.85;11.73;;;;;;;9.82;88.72;101019.72;7393776;19;20427;-67
2022/10/08 03:51:33;;;;;;;16.95;12.18;;;;;;;9.79;88.87;101023.25;7394532;19;20430;-67
2022/10/08 03:54:01;;;;;;;18.83;12.15;;;;;;;9.77;89.09;101019.78;7394501;19;20015;-67
2022/10/08 03:56:30;;;;;;;14.90;11.05;;;;;;;9.76;89.02;101012.81;7394378;19;20510;-67
2022/10/08 03:59:00;;;;;;;16.83;13.73;;;;;;;9.74;88.96;101015.47;7392542;19;20019;-67
2022/10/08 04:01:30;;;;;;;18.02;12.52;;;;;;;9.73;89.38;101012.84;7394285;19;20485;-67
2022/10/08 04:03:59;;;;;;;18.40;13.00;;;;;;;9.74;89.30;101025.06;7394587;19;20023;-67
2022/10/08 04:06:30;;;;;;;16.63;11.95;;;;;;;9.72;89.59;101014.59;7394057;19;20090;-67
2022/10/08 04:08:59;;;;;;;15.63;12.23;;;;;;;9.72;89.77;101016.38;7394163;19;20022;-67
2022/10/08 04:11:29;;;;;;;14.98;12.30;;;;;;;9.71;90.30;101019.88;7394385;19;20022;-67
2022/10/08 04:13:57;;;;;;;14.98;12.38;;;;;;;9.71;89.93;101020.72;7394378;19;20022;-67
2022/10/08 04:16:26;;;;;;;17.38;12.48;;;;;;;9.71;89.85;101022.50;7394185;19;20031;-67
2022/10/08 04:18:54;;;;;;;16.48;11.98;;;;;;;9.71;89.93;101020.72;7391735;19;20497;-67
2022/10/08 04:21:23;;;;;;;17.40;12.35;;;;;;;9.71;90.22;101018.13;7392272;19;20023;-67
2022/10/08 04:23:54;;;;;;;15.93;12.23;;;;;;;9.70;90.25;101021.59;7394041;19;20018;-68
2022/10/08 04:26:22;;;;;;;18.25;12.00;;;;;;;9.71;90.08;101023.34;7392122;19;20018;-68
2022/10/08 04:28:51;;;;;;;19.70;12.00;;;;;;;9.70;90.06;101020.75;7392134;19;20014;-67
2022/10/08 04:31:22;;;;;;;21.48;12.82;;;;;;;9.70;89.71;101016.38;7393729;19;20036;-67
2022/10/08 04:33:52;;;;;;;19.60;12.38;;;;;;;9.71;89.89;101012.88;7395658;19;20037;-68
2022/10/08 04:36:23;;;;;;;14.85;12.05;;;;;;;9.69;90.00;101019.03;7401254;19;20036;-68
2022/10/08 04:38:54;;;;;;;17.00;13.10;;;;;;;9.69;90.10;101005.91;7398322;19;20090;-67
2022/10/08 04:41:25;;;;;;;17.30;12.90;;;;;;;9.68;90.14;101017.28;7401359;19;20010;-68
2022/10/08 04:43:55;;;;;;;15.10;12.50;;;;;;;9.66;90.13;101019.06;7401442;19;20015;-68
2022/10/08 04:46:24;;;;;;;16.08;13.25;;;;;;;9.63;90.37;101009.50;7400160;19;20481;-68
2022/10/08 04:48:54;;;;;;;17.42;12.90;;;;;;;9.61;89.99;101014.75;7397315;19;20374;-67
2022/10/08 04:51:24;;;;;;;24.80;12.43;;;;;;;9.60;89.88;101015.66;7398593;19;20031;-68
2022/10/08 04:53:57;;;;;;;17.90;12.80;;;;;;;9.58;90.18;101012.19;7397706;19;20019;-66
2022/10/08 04:56:27;;;;;;;18.58;13.52;;;;;;;9.55;90.26;101006.97;7398412;19;20035;-67
2022/10/08 04:58:56;;;;;;;20.10;14.68;;;;;;;9.54;90.11;101012.22;7397489;19;20036;-67
2022/10/08 05:01:25;;;;;;;17.00;13.35;;;;;;;9.51;90.28;101020.13;7397813;19;20030;-68
2022/10/08 05:03:55;;;;;;;19.20;14.57;;;;;;;9.49;91.00;101022.78;7397476;19;20027;-67
2022/10/08 05:06:26;;;;;;;18.15;13.18;;;;;;;9.49;90.67;101022.78;7399616;19;20031;-67
2022/10/08 05:09:01;;;;;;;17.52;13.88;;;;;;;9.47;90.65;101016.69;7397687;19;20044;-67
2022/10/08 05:11:30;;;;;;;42.47;29.08;;;;;;;9.47;90.61;101026.31;7397707;19;20018;-67
2022/10/08 05:14:00;;;;;;;22.27;14.85;;;;;;;9.45;90.69;101018.44;7397556;19;20023;-67
2022/10/08 05:16:28;;;;;;;19.23;14.52;;;;;;;9.45;90.52;101027.19;7399730;19;20023;-67
2022/10/08 05:18:58;;;;;;;17.17;13.43;;;;;;;9.45;90.78;101031.53;7396709;19;20427;-68
2022/10/08 05:21:28;;;;;;;19.48;13.75;;;;;;;9.43;91.25;101030.72;7399214;19;20410;-69
2022/10/08 05:24:02;;;;;;;17.42;13.68;;;;;;;9.41;91.45;101032.47;7399914;19;20018;-70
2022/10/08 05:26:32;;;;;;;19.88;14.15;;;;;;;9.37;91.31;101034.25;7399051;19;20490;-69
2022/10/08 05:29:01;;;;;;;19.98;14.10;;;;;;;9.34;90.93;101025.56;7399130;19;20015;-70
2022/10/08 05:31:31;;;;;;;19.08;14.85;;;;;;;9.33;91.39;101035.19;7399189;19;20022;-69
2022/10/08 05:34:01;;;;;;;22.05;14.55;;;;;;;9.29;91.37;101041.34;7398683;19;20501;-69
2022/10/08 05:36:32;;;;;;;18.50;13.98;;;;;;;9.27;91.75;101038.72;7399024;19;20023;-69
2022/10/08 05:39:05;;;;;;;18.75;13.95;;;;;;;9.23;91.85;101034.41;7396533;19;20019;-69
2022/10/08 05:41:36;;;;;;;19.55;14.15;;;;;;;9.20;91.88;101037.09;7398319;19;20512;-69
2022/10/08 05:44:05;;;;;;;19.42;14.60;;;;;;;9.19;91.69;101039.72;7398587;19;20504;-69
2022/10/08 05:46:35;;;;;;;20.85;13.88;;;;;;;9.16;91.80;101043.22;7396753;19;20102;-69
2022/10/08 05:49:06;;;;;;;19.15;14.50;;;;;;;9.14;92.06;101034.53;7397566;19;20477;-69
2022/10/08 05:51:41;;;;;;;20.55;14.43;;;;;;;9.12;91.63;101038.91;7398974;19;20060;-70
2022/10/08 05:54:12;;;;;;;18.95;14.73;;;;;;;9.11;91.69;101042.41;7398560;19;20023;-68
2022/10/08 05:56:40;;;;;;;19.02;15.80;;;;;;;9.09;91.77;101044.19;7397920;19;20019;-70
2022/10/08 05:59:09;;;;;;;19.55;14.40;;;;;;;9.11;91.62;101056.38;7398108;19;20032;-67
2022/10/08 06:01:37;;;;;;;18.33;15.68;;;;;;;9.10;91.77;101054.63;7398370;19;20027;-69
2022/10/08 06:04:08;;;;;;;19.60;15.68;;;;;;;9.10;91.99;101045.94;7398074;19;20011;-68
2022/10/08 06:06:37;;;;;;;22.17;15.05;;;;;;;9.10;92.19;101049.41;7395700;19;20516;-68
2022/10/08 06:09:13;;;;;;;18.50;15.05;;;;;;;9.11;92.21;101045.03;7395840;19;20038;-68
2022/10/08 06:11:44;;;;;;;19.60;15.63;;;;;;;9.10;92.51;101053.78;7398435;19;20027;-68
2022/10/08 06:14:15;;;;;;;19.98;15.32;;;;;;;9.11;92.49;101055.50;7398265;19;20398;-67
2022/10/08 06:16:44;;;;;;;19.60;15.77;;;;;;;9.10;92.45;101059.03;7398118;19;20010;-68
2022/10/08 06:19:12;;;;;;;22.42;15.65;;;;;;;9.11;92.54;101068.59;7397716;19;20028;-69
2022/10/08 06:21:41;;;;;;;24.52;15.80;;;;;;;9.11;92.29;101068.59;7397510;19;20407;-69
2022/10/08 06:24:11;;;;;;;23.33;15.90;;;;;;;9.10;92.66;101077.34;7397302;19;20027;-69
2022/10/08 06:26:44;;;;;;;21.75;16.00;;;;;;;9.09;93.31;101079.06;7397634;19;20026;-69
2022/10/08 06:29:16;;;;;;;27.25;16.90;;;;;;;9.09;93.21;101081.69;7395626;19;20014;-68
2022/10/08 06:31:46;;;;;;;21.20;16.45;;;;;;;9.10;92.86;101077.34;7395228;19;20029;-68
2022/10/08 06:34:14;;;;;;;23.88;17.42;;;;;;;9.11;92.73;101084.28;7396713;19;20018;-68
2022/10/08 06:36:43;;;;;;;22.20;16.27;;;;;;;9.13;93.09;101093.00;7396184;19;20015;-68
2022/10/08 06:39:15;;;;;;;22.63;16.55;;;;;;;9.13;93.24;101087.78;7394535;19;20465;-68
2022/10/08 06:41:46;;;;;;;23.27;17.15;;;;;;;9.15;92.80;101090.38;7397363;19;20089;-68
2022/10/08 06:44:17;;;;;;;20.95;16.30;;;;;;;9.16;92.93;101082.50;7396503;19;20018;-68
2022/10/08 06:46:46;;;;;;;24.58;17.98;;;;;;;9.20;93.19;101089.44;7396080;19;20037;-68
2022/10/08 06:49:15;;;;;;;23.17;17.27;;;;;;;9.24;92.91;101096.38;7394494;19;20021;-69
2022/10/08 06:51:43;;;;;;;20.67;16.35;;;;;;;9.27;93.03;101090.25;7397118;19;20018;-68
2022/10/08 06:54:12;;;;;;;22.75;17.55;;;;;;;9.29;93.52;101089.34;7396214;19;20014;-68
2022/10/08 06:56:41;;;;;;;24.75;17.40;;;;;;;9.32;92.99;101098.91;7396093;19;20022;-67
2022/10/08 06:59:12;;;;;;;25.45;17.15;;;;;;;9.37;92.97;101102.34;7396466;19;20018;-67
2022/10/08 07:01:40;;;;;;;22.95;16.88;;;;;;;9.40;93.03;101094.47;7396532;19;20022;-67
2022/10/08 07:04:09;;;;;;;24.90;16.45;;;;;;;9.43;93.35;101106.66;7395945;19;20035;-67
2022/10/08 07:06:37;;;;;;;23.80;17.98;;;;;;;9.44;93.56;101113.66;7395147;19;20383;-66
2022/10/08 07:09:07;;;;;;;23.92;17.35;;;;;;;9.50;93.32;101118.78;7393693;19;20023;-67
2022/10/08 07:11:36;;;;;;;28.67;18.13;;;;;;;9.53;93.52;101105.66;7393052;19;20037;-67
2022/10/08 07:14:04;;;;;;;20.25;16.23;;;;;;;9.56;93.39;101107.38;7395386;19;20031;-67
2022/10/08 07:16:35;;;;;;;24.48;17.23;;;;;;;9.60;93.36;101109.06;7395320;19;20022;-69
2022/10/08 07:19:04;;;;;;;24.15;17.08;;;;;;;9.62;93.44;101102.06;7395162;19;20074;-68
2022/10/08 07:21:33;;;;;;;34.85;19.00;;;;;;;9.66;93.77;101109.00;7394926;19;20041;-68
2022/10/08 07:24:02;;;;;;;48.47;22.45;;;;;;;9.70;93.64;101109.84;7395092;19;20035;-68
2022/10/08 07:26:33;;;;;;;52.55;24.20;;;;;;;9.73;93.64;101094.94;7394928;19;20513;-68
2022/10/08 07:29:05;;;;;;;52.97;21.90;;;;;;;9.77;93.60;101091.41;7393948;19;20014;-67
2022/10/08 07:31:38;;;;;;;42.75;20.48;;;;;;;9.84;93.68;101093.94;7395147;19;20032;-67
2022/10/08 07:34:09;;;;;;;36.28;20.27;;;;;;;9.88;93.65;101093.88;7395042;19;20010;-67
2022/10/08 07:36:38;;;;;;;30.42;20.00;;;;;;;9.95;94.25;101095.53;7393305;19;20026;-68
2022/10/08 07:39:08;;;;;;;33.60;19.48;;;;;;;10.03;94.15;101102.41;7395754;19;20022;-67
2022/10/08 07:41:37;;;;;;;30.42;19.10;;;;;;;10.10;94.59;101104.06;7395054;19;20018;-67
2022/10/08 07:44:07;;;;;;;28.45;20.08;;;;;;;10.20;94.62;101104.81;7394658;19;20011;-67
2022/10/08 07:46:39;;;;;;;30.33;18.45;;;;;;;10.30;94.18;101100.28;7392821;19;20027;-68
2022/10/08 07:49:07;;;;;;;29.33;18.38;;;;;;;10.39;94.50;101110.69;7392982;19;20014;-67
2022/10/08 07:51:36;;;;;;;22.88;16.08;;;;;;;10.47;94.30;101105.31;7393112;19;20022;-68
2022/10/08 07:54:07;;;;;;;23.02;16.77;;;;;;;10.57;94.08;101110.38;7394526;19;20018;-67
2022/10/08 07:56:37;;;;;;;21.45;14.73;;;;;;;10.68;93.79;101106.72;7392633;19;20039;-69
2022/10/08 07:59:07;;;;;;;21.90;15.23;;;;;;;10.78;93.83;101112.69;7394371;19;20058;-67
2022/10/08 08:01:39;;;;;;;19.35;14.30;;;;;;;10.90;93.68;101112.50;7394768;19;20010;-66
2022/10/08 08:04:10;;;;;;;21.88;14.15;;;;;;;11.04;93.10;101120.13;7392631;19;20015;-68
2022/10/08 08:06:41;;;;;;;17.80;13.75;;;;;;;11.17;92.64;101120.75;7392618;19;20035;-67
2022/10/08 08:09:13;;;;;;;21.45;12.25;;;;;;;11.29;91.85;101135.44;7395292;19;20022;-67
2022/10/08 08:11:42;;;;;;;20.15;13.43;;;;;;;11.37;91.39;101129.16;7401793;19;20026;-66
2022/10/08 08:14:10;;;;;;;18.30;13.02;;;;;;;11.46;91.00;101128.13;7400916;19;20023;-68
2022/10/08 08:16:42;;;;;;;18.40;11.60;;;;;;;11.53;90.45;101124.47;7401297;19;20035;-71
2022/10/08 08:19:10;;;;;;;18.90;12.27;;;;;;;11.61;89.93;101128.69;7398235;19;20041;-73
2022/10/08 08:21:40;;;;;;;17.48;11.38;;;;;;;11.65;89.69;101128.63;7400959;19;20520;-71
2022/10/08 08:24:11;;;;;;;16.00;11.02;;;;;;;11.70;89.38;101129.41;7400989;19;20037;-71
2022/10/08 08:26:41;;;;;;;14.88;10.02;;;;;;;11.76;88.60;101131.00;7397869;19;20027;-72
2022/10/08 08:29:12;;;;;;;20.15;9.85;;;;;;;11.82;88.00;101136.16;7399005;19;20026;-72
2022/10/08 08:31:44;;;;;;;14.20;9.45;;;;;;;11.89;87.88;101132.50;7400031;19;20453;-72
2022/10/08 08:34:15;;;;;;;15.43;9.15;;;;;;;11.96;87.72;101133.25;7399695;19;20095;-71
2022/10/08 08:36:47;;;;;;;16.25;9.02;;;;;;;12.03;87.21;101137.50;7400268;19;20014;-70
2022/10/08 08:39:18;;;;;;;14.63;7.78;;;;;;;12.11;86.65;101134.69;7400803;19;20035;-70
2022/10/08 08:41:54;;;;;;;15.43;8.57;;;;;;;12.19;86.29;101138.00;7400222;19;20010;-69
2022/10/08 08:44:25;;;;;;;13.60;7.50;;;;;;;12.25;84.56;101133.53;7400532;19;20418;-69
2022/10/08 08:47:02;;;;;;;16.42;7.10;;;;;;;12.34;83.31;101144.69;7400284;19;20018;-69
2022/10/08 08:49:33;;;;;;;13.52;6.72;;;;;;;12.41;82.99;101148.06;7397234;19;20025;-69
2022/10/08 08:52:04;;;;;;;13.48;5.78;;;;;;;12.47;82.41;101155.84;7398047;19;20019;-69
2022/10/08 08:54:33;;;;;;;14.50;6.15;;;;;;;12.57;81.55;101148.56;7401793;19;20031;-70
2022/10/08 08:57:13;;;;;;;14.50;4.57;;;;;;;12.66;81.38;101151.00;7398882;19;20489;-68
2022/10/08 08:59:46;;;;;;;10.40;5.25;;;;;;;12.73;80.46;101150.84;7400475;19;20419;-70
2022/10/08 09:02:23;;;;;;;9.73;4.45;;;;;;;12.80;79.66;101158.56;7399361;19;20027;-70
2022/10/08 09:04:59;;;;;;;10.82;4.00;;;;;;;12.88;78.85;101148.69;7400318;19;20022;-69
2022/10/08 09:07:43;;;;;;;10.75;4.32;;;;;;;12.96;78.92;101150.28;7398740;19;20026;-69
2022/10/08 09:10:18;;;;;;;11.43;3.78;;;;;;;13.04;78.44;101146.53;7400299;19;20022;-70
2022/10/08 09:12:47;;;;;;;12.60;3.70;;;;;;;13.13;77.29;101157.72;7397560;19;20022;-69
2022/10/08 09:15:20;;;;;;;8.70;2.78;;;;;;;13.20;76.01;101160.19;7397198;19;20042;-70
2022/10/08 09:17:53;;;;;;;11.00;3.27;;;;;;;13.29;74.63;101152.94;7398265;19;20025;-70
2022/10/08 09:20:25;;;;;;;11.35;2.65;;;;;;;13.38;74.75;101159.78;7396796;19;20033;-71
2022/10/08 09:22:55;;;;;;;7.22;2.88;;;;;;;13.47;74.87;101164.78;7397101;19;20369;-70
2022/10/08 09:25:27;;;;;;;7.13;2.50;;;;;;;13.53;73.71;101156.72;7400400;19;20006;-71
2022/10/08 09:27:56;;;;;;;8.20;2.90;;;;;;;13.60;73.05;101138.97;7397821;19;20024;-70
2022/10/08 09:30:39;;;;;;;8.77;2.05;;;;;;;13.65;71.51;101143.19;7399374;19;20019;-70
2022/10/08 09:33:28;;;;;;;7.43;2.42;;;;;;;13.73;70.25;101160.59;7399604;19;20013;-71
2022/10/08 09:35:57;;;;;;;8.75;2.63;;;;;;;13.79;71.70;101150.72;7398740;19;20011;-72
2022/10/08 09:38:27;;;;;;;9.65;2.20;;;;;;;13.87;71.56;101152.28;7396463;19;20485;-71
2022/10/08 09:41:04;;;;;;;4.65;2.22;;;;;;;13.91;68.00;101162.66;7398198;19;20391;-71
2022/10/08 09:43:33;;;;;;;9.88;2.08;;;;;;;13.98;69.83;101158.09;7398697;19;20026;-71
2022/10/08 09:46:04;;;;;;;8.20;1.92;;;;;;;14.05;69.47;101156.97;7398814;19;20384;-72
2022/10/08 09:48:35;;;;;;;6.50;1.80;;;;;;;14.13;69.52;101173.47;7396884;19;20078;-71
2022/10/08 09:51:08;;;;;;;7.75;2.63;;;;;;;14.21;69.11;101161.84;7396249;19;20020;-71
2022/10/08 09:53:43;;;;;;;5.97;2.20;;;;;;;14.24;67.54;101165.25;7398440;19;20041;-72
2022/10/08 09:56:15;;;;;;;9.95;2.50;;;;;;;14.36;68.49;101165.78;7398586;19;20459;-71
2022/10/08 09:58:53;;;;;;;7.30;1.92;;;;;;;14.45;68.54;101173.41;7396439;19;20031;-71
2022/10/08 10:01:23;;;;;;;6.93;1.92;;;;;;;14.57;67.15;101183.59;7395849;19;20083;-72
2022/10/08 10:03:56;;;;;;;10.35;2.33;;;;;;;14.66;67.71;101188.59;7395758;19;20010;-72
2022/10/08 10:06:31;;;;;;;6.05;2.00;;;;;;;14.76;67.91;101177.72;7398583;19;20018;-72
2022/10/08 10:09:04;;;;;;;10.57;2.38;;;;;;;14.83;68.07;101180.13;7397559;19;20010;-72
2022/10/08 10:11:46;;;;;;;8.45;2.33;;;;;;;14.94;66.98;101173.66;7398278;19;20029;-72
2022/10/08 10:14:23;;;;;;;10.57;2.88;;;;;;;15.04;67.27;101179.47;7397525;19;20011;-72
2022/10/08 10:16:59;;;;;;;6.80;2.08;;;;;;;15.10;67.22;101171.34;7396181;19;20018;-71
2022/10/08 10:19:34;;;;;;;7.93;2.25;;;;;;;15.17;66.27;101174.66;7398139;19;20018;-71
2022/10/08 10:22:06;;;;;;;10.88;2.85;;;;;;;15.23;67.10;101177.94;7397926;19;20022;-72
2022/10/08 10:24:49;;;;;;;11.82;3.20;;;;;;;15.22;66.35;101186.78;7397145;19;20544;-71
2022/10/08 10:27:25;;;;;;;8.82;2.50;;;;;;;15.22;66.22;101178.84;7396569;19;20014;-71
2022/10/08 10:30:03;;;;;;;7.97;2.05;;;;;;;15.20;65.73;101185.97;7394512;19;20018;-72
2022/10/08 10:32:38;;;;;;;9.32;2.50;;;;;;;15.21;66.29;101184.19;7397574;19;20028;-72
2022/10/08 10:35:22;;;;;;;8.57;2.00;;;;;;;15.13;65.10;101190.59;7400056;19;20035;-72
2022/10/08 10:37:55;;;;;;;8.73;2.85;;;;;;;15.11;66.24;101181.88;7396246;19;20472;-71
2022/10/08 10:40:44;;;;;;;12.77;3.13;;;;;;;15.08;65.32;101192.53;7396233;19;20014;-71
2022/10/08 10:43:38;;;;;;;5.05;2.33;;;;;;;15.00;65.82;101199.88;7397023;19;20035;-72
2022/10/08 10:46:13;;;;;;;;;;;;;;;14.87;65.87;101198.53;7397381;19;20023;-72
2022/10/08 10:48:42;;;;;;;7.20;2.67;;;;;;;14.81;67.33;101203.09;7394649;19;19915;-71
2022/10/08 10:51:23;;;;;;;7.05;3.00;;;;;;;14.69;67.15;101202.63;7394667;19;20367;-72
2022/10/08 10:54:06;;;;;;;8.43;2.83;;;;;;;14.59;67.33;101197.59;7396012;19;20477;-71
2022/10/08 10:56:41;;;;;;;10.93;3.30;;;;;;;14.55;67.78;101200.41;7396561;19;20022;-71
2022/10/08 10:59:38;;;;;;;6.15;3.30;;;;;;;14.43;67.26;101215.69;7395557;19;20022;-70
2022/10/08 11:02:16;;;;;;;9.30;3.58;;;;;;;14.34;67.79;101205.41;7395634;19;20035;-70
2022/10/08 11:04:54;;;;;;;6.80;3.10;;;;;;;14.27;68.46;101210.00;7396527;19;20031;-72
2022/10/08 11:07:45;;;;;;;9.02;3.58;;;;;;;14.16;68.66;101202.38;7394949;19;20491;-71
2022/10/08 11:10:28;;;;;;;12.52;3.90;;;;;;;14.06;70.95;101223.81;7394236;19;20014;-72
2022/10/08 11:13:04;;;;;;;8.88;4.13;;;;;;;13.85;73.58;101226.16;7396639;19;20006;-72
2022/10/08 11:15:41;;;;;;;7.63;4.38;;;;;;;13.65;74.44;101227.56;7395597;19;20485;-71
2022/10/08 11:18:25;;;;;;;10.45;4.25;;;;;;;13.39;76.12;101224.75;7395572;19;20028;-72
2022/10/08 11:21:13;;;;;;;12.73;5.50;;;;;;;13.25;76.88;101227.72;7395181;19;20011;-73
2022/10/08 11:24:03;;;;;;;9.25;4.93;;;;;;;13.10;77.45;101221.06;7395768;19;20018;-72
2022/10/08 11:26:40;;;;;;;10.10;4.93;;;;;;;13.06;76.80;101216.78;7395191;19;20018;-71
2022/10/08 11:29:18;;;;;;;11.55;3.35;;;;;;;13.03;76.89;101217.72;7395519;19;20078;-72
2022/10/08 11:31:49;;;;;;;8.32;3.40;;;;;;;13.08;76.41;101225.47;7395575;19;20015;-72
2022/10/08 11:34:30;;;;;;;9.07;3.75;;;;;;;13.10;76.38;101223.69;7395778;19;20018;-72
2022/10/08 11:37:10;;;;;;;12.40;3.67;;;;;;;13.15;76.75;101225.28;7394379;19;20405;-72
2022/10/08 11:39:48;;;;;;;8.88;3.35;;;;;;;13.24;76.48;101228.59;7393791;19;20018;-71
2022/10/08 11:42:25;;;;;;;8.05;3.13;;;;;;;13.29;76.14;101224.94;7392954;19;20019;-71